createdAt,value
2019-03-26T00:02:19.201Z,80.23
2019-03-26T00:04:48.429Z,79.86
2019-03-26T00:07:17.627Z,79.92
2019-03-26T00:09:46.855Z,80.21
2019-03-26T00:12:16.076Z,80.00
2019-03-26T00:14:45.278Z,79.47
2019-03-26T00:17:14.587Z,79.68
2019-03-26T00:19:43.781Z,79.34
2019-03-26T00:22:12.983Z,79.24
2019-03-26T00:24:42.211Z,79.98
2019-03-26T00:27:11.434Z,79.79
2019-03-26T00:29:40.643Z,79.90
2019-03-26T00:32:09.879Z,80.90
2019-03-26T00:34:39.072Z,80.71
2019-03-26T00:37:08.282Z,80.64
2019-03-26T00:39:37.536Z,81.24
2019-03-26T00:42:07.043Z,80.79
2019-03-26T00:44:36.244Z,81.09
2019-03-26T00:47:05.553Z,81.33
2019-03-26T00:49:34.751Z,81.59
2019-03-26T00:52:03.968Z,81.59
2019-03-26T00:54:33.194Z,82.63
2019-03-26T00:57:02.510Z,82.46
2019-03-26T00:59:31.730Z,82.48
2019-03-26T01:02:00.958Z,82.51
2019-03-26T01:04:33.059Z,82.74
2019-03-26T01:07:01.094Z,83.06
2019-03-26T01:09:30.338Z,83.31
2019-03-26T01:11:59.539Z,83.04
2019-03-26T01:14:28.758Z,82.84
2019-03-26T01:16:57.981Z,82.69
2019-03-26T01:19:27.191Z,82.81
2019-03-26T01:21:56.509Z,82.13
2019-03-26T01:24:25.778Z,81.81
2019-03-26T01:26:54.975Z,81.94
2019-03-26T01:29:24.185Z,81.80
2019-03-26T01:31:53.408Z,81.76
2019-03-26T01:34:22.630Z,82.16
2019-03-26T01:36:51.824Z,82.12
2019-03-26T01:39:21.046Z,82.12
2019-03-26T01:41:50.284Z,82.10
2019-03-26T01:44:19.517Z,81.84
2019-03-26T01:46:48.802Z,81.41
2019-03-26T01:49:18.002Z,81.74
2019-03-26T01:51:47.225Z,81.65
2019-03-26T01:54:16.422Z,81.62
2019-03-26T01:56:45.656Z,81.75
2019-03-26T01:59:14.897Z,81.09
2019-03-26T02:01:44.096Z,81.22
2019-03-26T02:04:13.318Z,80.58
2019-03-26T02:06:42.537Z,81.25
2019-03-26T02:09:11.770Z,81.23
2019-03-26T02:11:41.095Z,80.85
2019-03-26T02:14:10.291Z,80.93
2019-03-26T02:16:39.544Z,80.56
2019-03-26T02:19:08.740Z,80.49
2019-03-26T02:21:37.940Z,80.71
2019-03-26T02:24:07.249Z,81.11
2019-03-26T02:26:36.449Z,81.06
2019-03-26T02:29:05.652Z,81.01
2019-03-26T02:31:34.892Z,80.90
2019-03-26T02:34:04.087Z,80.36
2019-03-26T02:36:33.276Z,80.68
2019-03-26T02:39:02.512Z,80.81
2019-03-26T02:41:31.707Z,80.64
2019-03-26T02:44:00.908Z,80.40
2019-03-26T02:46:30.133Z,79.84
2019-03-26T02:48:59.357Z,80.01
2019-03-26T02:51:28.568Z,79.77
2019-03-26T02:53:57.760Z,79.41
2019-03-26T02:56:27.000Z,78.45
2019-03-26T02:58:56.204Z,78.71
2019-03-26T03:01:25.453Z,78.58
2019-03-26T03:03:54.643Z,78.70
2019-03-26T03:06:23.870Z,78.76
2019-03-26T03:08:53.071Z,77.99
2019-03-26T03:11:22.282Z,77.88
2019-03-26T03:13:51.584Z,77.72
2019-03-26T03:16:20.885Z,77.37
2019-03-26T03:18:50.114Z,77.61
2019-03-26T03:21:19.336Z,77.13
2019-03-26T03:23:48.543Z,78.00
2019-03-26T03:26:17.831Z,72.23
2019-03-26T03:28:47.048Z,72.70
2019-03-26T03:31:16.246Z,72.40
2019-03-26T03:33:45.457Z,72.33
2019-03-26T03:36:14.658Z,73.26
2019-03-26T03:38:43.881Z,73.44
2019-03-26T03:41:13.100Z,72.58
2019-03-26T03:43:42.367Z,70.42
2019-03-26T03:46:11.579Z,69.78
2019-03-26T03:48:40.961Z,70.08
2019-03-26T03:51:11.754Z,70.37
2019-03-26T03:53:41.026Z,70.98
2019-03-26T03:56:13.347Z,70.74
2019-03-26T03:58:44.357Z,71.41
2019-03-26T04:01:13.574Z,72.08
2019-03-26T04:03:42.792Z,72.76
2019-03-26T04:06:12.027Z,72.89
2019-03-26T04:08:41.238Z,73.32
2019-03-26T04:11:10.441Z,73.01
2019-03-26T04:13:39.653Z,72.00
2019-03-26T04:16:08.898Z,71.70
2019-03-26T04:18:38.118Z,71.72
2019-03-26T04:21:07.351Z,71.97
2019-03-26T04:23:36.562Z,71.10
2019-03-26T04:26:05.761Z,70.24
2019-03-26T04:28:34.981Z,70.79
2019-03-26T04:31:04.194Z,71.41
2019-03-26T04:33:33.403Z,72.16
2019-03-26T04:36:02.628Z,72.47
2019-03-26T04:38:31.916Z,72.02
2019-03-26T04:41:01.146Z,71.28
2019-03-26T04:43:30.345Z,71.51
2019-03-26T04:45:59.541Z,70.69
2019-03-26T04:48:28.781Z,71.80
2019-03-26T04:50:58.057Z,71.95
2019-03-26T04:53:27.341Z,73.18
2019-03-26T04:55:56.636Z,74.00
2019-03-26T04:58:25.844Z,74.78
2019-03-26T05:00:55.150Z,75.33
2019-03-26T05:03:24.365Z,77.14
2019-03-26T05:05:53.563Z,77.82
2019-03-26T05:08:22.784Z,77.86
2019-03-26T05:10:51.988Z,76.90
2019-03-26T05:13:21.211Z,75.32
2019-03-26T05:15:50.460Z,72.98
2019-03-26T05:18:19.652Z,70.91
2019-03-26T05:20:48.872Z,69.67
2019-03-26T05:23:18.366Z,69.69
2019-03-26T05:25:47.556Z,69.68
2019-03-26T05:28:16.849Z,70.44
2019-03-26T05:30:46.079Z,69.82
2019-03-26T05:33:15.270Z,70.48
2019-03-26T05:35:44.466Z,70.60
2019-03-26T05:38:13.766Z,71.26
2019-03-26T05:40:42.995Z,71.37
2019-03-26T05:43:12.258Z,71.81
2019-03-26T05:45:41.456Z,71.71
2019-03-26T05:48:10.677Z,70.87
2019-03-26T05:50:39.903Z,71.41
2019-03-26T05:53:09.104Z,71.58
2019-03-26T05:55:38.317Z,71.49
2019-03-26T05:58:07.639Z,71.49
2019-03-26T06:00:36.843Z,71.23
2019-03-26T06:03:06.128Z,71.13
2019-03-26T06:05:35.348Z,71.48
2019-03-26T06:08:04.548Z,71.79
2019-03-26T06:10:33.757Z,71.76
2019-03-26T06:13:02.981Z,72.28
2019-03-26T06:15:32.191Z,71.43
2019-03-26T06:18:01.389Z,72.38
2019-03-26T06:20:30.622Z,72.19
2019-03-26T06:22:59.820Z,72.52
2019-03-26T06:25:29.035Z,71.77
2019-03-26T06:27:58.251Z,71.74
2019-03-26T06:30:27.464Z,71.67
2019-03-26T06:32:56.674Z,71.01
2019-03-26T06:35:25.897Z,71.06
2019-03-26T06:37:55.094Z,70.79
2019-03-26T06:40:24.339Z,70.96
2019-03-26T06:42:53.892Z,69.11
2019-03-26T06:45:23.169Z,68.96
2019-03-26T06:47:52.356Z,69.06
2019-03-26T06:50:21.760Z,69.63
2019-03-26T06:52:50.980Z,68.06
2019-03-26T06:55:20.425Z,67.06
2019-03-26T06:57:49.666Z,66.52
2019-03-26T07:00:29.538Z,67.15
2019-03-26T07:03:00.087Z,66.21
2019-03-26T07:05:29.299Z,66.10
2019-03-26T07:07:58.605Z,66.93
2019-03-26T07:10:28.697Z,66.54
2019-03-26T07:12:58.311Z,65.92
2019-03-26T07:15:27.543Z,65.43
2019-03-26T07:17:57.169Z,65.53
2019-03-26T07:20:26.445Z,66.39
2019-03-26T07:22:55.679Z,64.55
2019-03-26T07:25:24.954Z,64.79
2019-03-26T07:27:54.235Z,63.71
2019-03-26T07:30:40.936Z,65.17
2019-03-26T07:33:10.908Z,66.02
2019-03-26T07:35:40.280Z,66.71
2019-03-26T07:38:09.586Z,66.96
2019-03-26T07:40:38.785Z,64.92
2019-03-26T07:43:08.143Z,65.04
2019-03-26T07:45:37.648Z,67.93
2019-03-26T07:48:06.928Z,67.56
2019-03-26T07:50:36.230Z,69.12
2019-03-26T07:53:05.531Z,69.01
2019-03-26T07:55:34.733Z,68.14
2019-03-26T07:58:03.952Z,67.74
2019-03-26T08:00:37.466Z,66.70
2019-03-26T08:03:07.673Z,67.40
2019-03-26T08:05:37.204Z,65.67
2019-03-26T08:08:06.488Z,67.45
2019-03-26T08:10:35.704Z,68.59
2019-03-26T08:13:05.001Z,68.64
2019-03-26T08:15:34.225Z,68.02
2019-03-26T08:18:03.466Z,67.76
2019-03-26T08:20:32.666Z,66.74
2019-03-26T08:23:01.873Z,67.24
2019-03-26T08:25:33.710Z,68.29
2019-03-26T08:28:04.903Z,68.25
2019-03-26T08:30:32.944Z,67.68
2019-03-26T08:33:02.156Z,67.47
2019-03-26T08:35:31.392Z,67.06
2019-03-26T08:38:11.654Z,68.10
2019-03-26T08:40:31.498Z,68.31
2019-03-26T08:43:00.714Z,68.14
2019-03-26T08:45:30.043Z,67.65
2019-03-26T08:47:59.247Z,67.87
2019-03-26T08:50:28.438Z,66.54
2019-03-26T08:52:57.695Z,67.18
2019-03-26T08:55:26.879Z,66.58
2019-03-26T08:57:56.067Z,65.49
2019-03-26T09:00:25.290Z,65.31
2019-03-26T09:02:54.510Z,66.31
2019-03-26T09:05:23.714Z,65.81
2019-03-26T09:07:53.003Z,64.73
2019-03-26T09:10:22.304Z,63.25
2019-03-26T09:12:51.500Z,62.29
2019-03-26T09:15:20.718Z,63.01
2019-03-26T09:17:49.942Z,62.59
2019-03-26T09:20:19.168Z,61.82
2019-03-26T09:22:48.368Z,61.65
2019-03-26T09:25:17.583Z,61.10
2019-03-26T09:27:46.848Z,62.33
2019-03-26T09:30:16.528Z,63.93
2019-03-26T09:32:45.734Z,64.57
2019-03-26T09:35:15.946Z,65.34
2019-03-26T09:37:45.168Z,64.03
2019-03-26T09:40:14.757Z,65.02
2019-03-26T09:42:43.983Z,66.09
2019-03-26T09:45:13.363Z,66.33
2019-03-26T09:47:42.557Z,65.22
2019-03-26T09:50:12.812Z,64.24
2019-03-26T09:52:42.115Z,63.55
2019-03-26T09:55:11.468Z,62.55
2019-03-26T09:57:40.687Z,61.87
2019-03-26T10:00:10.746Z,62.79
2019-03-26T10:02:42.751Z,63.19
2019-03-26T10:05:11.321Z,64.52
2019-03-26T10:07:40.618Z,63.53
2019-03-26T10:10:11.848Z,64.15
2019-03-26T10:12:41.044Z,65.22
2019-03-26T10:15:10.956Z,65.43
2019-03-26T10:17:40.471Z,66.04
2019-03-26T10:20:10.034Z,65.47
2019-03-26T10:22:39.231Z,65.24
2019-03-26T10:25:11.249Z,65.04
2019-03-26T10:27:41.071Z,64.55
2019-03-26T10:30:11.513Z,65.52
2019-03-26T10:32:40.737Z,65.30
2019-03-26T10:35:10.239Z,66.02
2019-03-26T10:37:39.447Z,65.07
2019-03-26T10:40:09.963Z,63.80
2019-03-26T10:42:39.194Z,63.04
2019-03-26T10:45:08.666Z,64.24
2019-03-26T10:47:37.871Z,64.04
2019-03-26T10:50:07.274Z,63.38
2019-03-26T10:52:36.478Z,63.49
2019-03-26T10:55:06.263Z,63.61
2019-03-26T10:57:35.492Z,64.70
2019-03-26T11:00:06.103Z,65.80
2019-03-26T11:02:35.415Z,64.80
2019-03-26T11:05:05.022Z,64.99
2019-03-26T11:07:34.226Z,64.62
2019-03-26T11:10:03.973Z,64.70
2019-03-26T11:12:33.186Z,64.41
2019-03-26T11:15:02.495Z,63.33
2019-03-26T11:17:31.985Z,63.86
2019-03-26T11:20:01.192Z,62.67
2019-03-26T11:22:30.805Z,63.02
2019-03-26T11:25:00.026Z,61.42
2019-03-26T11:27:29.226Z,61.73
2019-03-26T11:29:58.422Z,62.38
2019-03-26T11:32:27.646Z,62.19
2019-03-26T11:34:56.858Z,64.32
2019-03-26T11:37:26.075Z,65.78
2019-03-26T11:39:55.275Z,65.45
2019-03-26T11:42:24.510Z,65.57
2019-03-26T11:44:54.005Z,64.67
2019-03-26T11:47:23.231Z,65.61
2019-03-26T11:49:52.458Z,66.69
2019-03-26T11:52:21.656Z,66.81
2019-03-26T11:54:50.846Z,68.08
2019-03-26T11:57:20.084Z,68.60
2019-03-26T11:59:49.578Z,69.44
2019-03-26T12:02:18.992Z,69.58
2019-03-26T12:04:48.180Z,69.43
2019-03-26T12:07:17.409Z,69.04
2019-03-26T12:09:47.035Z,68.25
2019-03-26T12:12:16.300Z,69.39
2019-03-26T12:14:45.478Z,68.62
2019-03-26T12:17:15.147Z,70.55
2019-03-26T12:19:44.473Z,71.01
2019-03-26T12:22:13.699Z,71.27
2019-03-26T12:24:42.903Z,72.58
2019-03-26T12:27:12.169Z,73.71
2019-03-26T12:29:41.327Z,72.69
2019-03-26T12:32:10.535Z,73.77
2019-03-26T12:34:39.742Z,73.75
2019-03-26T12:37:09.031Z,74.44
2019-03-26T12:39:38.237Z,74.12
2019-03-26T12:42:07.464Z,75.19
2019-03-26T12:44:36.663Z,74.29
2019-03-26T12:47:05.862Z,74.03
2019-03-26T12:49:35.090Z,74.17
2019-03-26T12:52:04.359Z,74.52
2019-03-26T12:54:33.554Z,74.34
2019-03-26T12:57:02.768Z,74.86
2019-03-26T12:59:31.989Z,74.73
2019-03-26T13:02:01.212Z,74.48
2019-03-26T13:04:30.404Z,74.73
2019-03-26T13:06:59.624Z,74.37
2019-03-26T13:09:28.832Z,74.70
2019-03-26T13:11:58.057Z,74.79
2019-03-26T13:14:27.256Z,74.89
2019-03-26T13:16:56.453Z,75.29
2019-03-26T13:19:25.755Z,76.71
2019-03-26T13:21:54.959Z,77.85
2019-03-26T13:24:24.159Z,80.35
2019-03-26T13:26:53.388Z,80.83
2019-03-26T13:29:23.189Z,80.87
2019-03-26T13:31:52.388Z,80.67
2019-03-26T13:34:21.603Z,82.27
2019-03-26T13:36:50.816Z,81.30
2019-03-26T13:39:20.098Z,81.76
2019-03-26T13:41:49.321Z,81.88
2019-03-26T13:44:18.791Z,80.84
2019-03-26T13:46:48.021Z,81.96
2019-03-26T13:49:17.231Z,81.07
2019-03-26T13:51:46.743Z,81.22
2019-03-26T13:54:15.936Z,82.73
2019-03-26T13:56:45.133Z,82.02
2019-03-26T13:59:14.357Z,82.81
2019-03-26T14:01:43.577Z,83.19
2019-03-26T14:04:12.783Z,83.15
2019-03-26T14:06:42.022Z,83.23
2019-03-26T14:09:11.295Z,83.41
2019-03-26T14:11:40.493Z,82.87
2019-03-26T14:14:09.719Z,82.75
2019-03-26T14:16:38.922Z,82.90
2019-03-26T14:19:08.247Z,83.24
2019-03-26T14:21:37.473Z,82.31
2019-03-26T14:24:06.701Z,82.21
2019-03-26T14:26:35.897Z,81.12
2019-03-26T14:29:05.200Z,81.06
2019-03-26T14:31:34.429Z,82.14
2019-03-26T14:34:03.710Z,81.13
2019-03-26T14:36:32.988Z,82.14
2019-03-26T14:39:04.468Z,80.95
2019-03-26T14:41:33.686Z,80.91
2019-03-26T14:44:02.947Z,80.87
2019-03-26T14:46:32.187Z,81.09
2019-03-26T14:49:01.681Z,79.97
2019-03-26T14:51:30.876Z,80.19
2019-03-26T14:54:00.097Z,79.25
2019-03-26T14:56:29.326Z,79.25
2019-03-26T14:58:58.765Z,79.46
2019-03-26T15:01:27.975Z,79.38
2019-03-26T15:03:57.519Z,79.69
2019-03-26T15:07:24.478Z,79.79
2019-03-26T15:09:53.656Z,78.53
2019-03-26T15:12:22.884Z,78.55
2019-03-26T15:14:52.088Z,78.78
2019-03-26T15:17:21.283Z,79.08
2019-03-26T15:19:50.497Z,79.44
2019-03-26T15:22:19.714Z,79.67
2019-03-26T15:24:49.246Z,80.67
2019-03-26T15:27:18.517Z,81.12
2019-03-26T15:29:47.661Z,81.83
2019-03-26T15:32:16.905Z,82.48
2019-03-26T15:34:46.108Z,81.70
2019-03-26T15:37:15.323Z,82.52
2019-03-26T15:39:44.511Z,81.64
2019-03-26T15:42:13.727Z,82.29
2019-03-26T15:44:42.933Z,81.04
2019-03-26T15:47:12.163Z,80.27
2019-03-26T15:49:41.375Z,81.21
2019-03-26T15:52:10.567Z,79.94
2019-03-26T15:54:40.664Z,80.06
2019-03-26T15:57:09.858Z,80.33
2019-03-26T15:59:39.062Z,80.06
2019-03-26T16:02:08.370Z,80.11
2019-03-26T16:04:37.571Z,79.48
2019-03-26T16:07:06.812Z,80.37
2019-03-26T16:09:36.067Z,79.78
2019-03-26T16:12:05.354Z,80.92
2019-03-26T16:14:36.956Z,80.74
2019-03-26T16:17:06.188Z,81.72
2019-03-26T16:19:36.685Z,81.76
2019-03-26T16:22:05.981Z,82.11
2019-03-26T16:24:35.211Z,81.97
2019-03-26T16:27:04.500Z,81.71
2019-03-26T16:29:34.038Z,82.47
2019-03-26T16:32:03.273Z,83.27
2019-03-26T16:34:33.443Z,84.99
2019-03-26T16:37:02.977Z,84.62
2019-03-26T16:39:32.903Z,82.93
2019-03-26T16:42:02.189Z,83.16
2019-03-26T16:44:33.045Z,83.43
2019-03-26T16:47:03.609Z,83.32
2019-03-26T16:49:33.166Z,82.92
2019-03-26T16:52:07.290Z,83.40
2019-03-26T16:54:36.599Z,83.67
2019-03-26T16:57:16.477Z,83.00
2019-03-26T16:59:45.732Z,83.38
2019-03-26T17:02:14.925Z,82.94
2019-03-26T17:04:46.716Z,82.87
2019-03-26T17:07:15.139Z,83.12
2019-03-26T17:09:44.439Z,82.07
2019-03-26T17:12:13.947Z,82.57
2019-03-26T17:14:46.164Z,81.41
2019-03-26T17:17:16.047Z,82.78
2019-03-26T17:19:46.269Z,82.15
2019-03-26T17:22:15.459Z,82.38
2019-03-26T17:24:44.782Z,82.53
2019-03-26T17:27:13.985Z,82.25
2019-03-26T17:29:43.482Z,82.66
2019-03-26T17:32:12.793Z,82.43
2019-03-26T17:34:42.001Z,82.50
2019-03-26T17:37:11.507Z,83.79
2019-03-26T17:39:40.737Z,83.96
2019-03-26T17:42:17.230Z,84.88
2019-03-26T17:44:43.711Z,84.78
2019-03-26T17:47:12.961Z,84.30
2019-03-26T17:49:42.171Z,84.54
2019-03-26T17:52:11.723Z,85.22
2019-03-26T17:54:41.272Z,85.59
2019-03-26T17:57:12.644Z,85.40
2019-03-26T17:59:41.902Z,85.54
2019-03-26T18:02:11.146Z,86.01
2019-03-26T18:04:41.120Z,85.42
2019-03-26T18:07:10.948Z,85.71
2019-03-26T18:09:40.262Z,85.51
2019-03-26T18:12:09.498Z,85.54
2019-03-26T18:14:38.749Z,85.88
2019-03-26T18:17:08.327Z,86.07
2019-03-26T18:19:37.523Z,86.01
2019-03-26T18:22:06.816Z,86.01
2019-03-26T18:24:36.700Z,85.91
2019-03-26T18:27:05.934Z,86.04
2019-03-26T18:29:35.148Z,85.30
2019-03-26T18:32:04.353Z,84.68
2019-03-26T18:34:33.971Z,84.96
2019-03-26T18:37:03.491Z,84.65
2019-03-26T18:39:32.699Z,84.76
2019-03-26T18:42:02.285Z,84.80
2019-03-26T18:44:31.500Z,84.90
2019-03-26T18:47:01.044Z,84.35
2019-03-26T18:49:30.669Z,84.94
2019-03-26T18:51:59.920Z,85.08
2019-03-26T18:54:29.136Z,84.93
2019-03-26T18:56:59.036Z,84.91
2019-03-26T18:59:28.548Z,85.05
2019-03-26T19:01:57.772Z,85.37
2019-03-26T19:04:28.042Z,85.41
2019-03-26T19:06:57.281Z,85.21
2019-03-26T19:09:26.553Z,84.64
2019-03-26T19:11:57.370Z,84.94
2019-03-26T19:14:26.866Z,84.84
2019-03-26T19:16:56.107Z,84.96
2019-03-26T19:19:25.319Z,84.56
2019-03-26T19:21:54.563Z,84.58
2019-03-26T19:24:23.796Z,84.41
2019-03-26T19:26:53.014Z,84.36
2019-03-26T19:29:22.848Z,84.84
2019-03-26T19:31:52.070Z,84.72
2019-03-26T19:34:21.308Z,84.98
2019-03-26T19:36:51.073Z,85.06
2019-03-26T19:39:21.016Z,85.29
2019-03-26T19:41:50.227Z,85.04
2019-03-26T19:44:19.469Z,85.85
2019-03-26T19:46:50.637Z,85.78
2019-03-26T19:49:20.227Z,84.68
2019-03-26T19:51:50.846Z,84.33
2019-03-26T19:54:24.312Z,84.63
2019-03-26T19:56:58.829Z,82.91
2019-03-26T19:59:29.553Z,83.35
2019-03-26T20:01:59.947Z,83.89
2019-03-26T20:04:31.877Z,84.67
2019-03-26T20:07:01.580Z,85.04
2019-03-26T20:09:34.572Z,85.27
2019-03-26T20:12:04.660Z,85.36
2019-03-26T20:14:34.798Z,85.46
2019-03-26T20:17:04.182Z,85.41
2019-03-26T20:19:34.135Z,85.29
2019-03-26T20:22:03.374Z,85.02
2019-03-26T20:24:34.893Z,84.99
2019-03-26T20:27:14.221Z,85.33
2019-03-26T20:29:44.937Z,85.63
2019-03-26T20:32:16.647Z,86.04
2019-03-26T20:34:46.368Z,85.50
2019-03-26T20:37:16.004Z,85.26
2019-03-26T20:39:47.634Z,84.99
2019-03-26T20:42:18.748Z,84.86
2019-03-26T20:44:48.343Z,84.93
2019-03-26T20:47:17.846Z,84.54
2019-03-26T20:49:47.941Z,84.04
2019-03-26T20:52:18.941Z,83.66
2019-03-26T20:54:48.824Z,83.76
2019-03-26T20:57:21.342Z,83.78
2019-03-26T20:59:52.302Z,83.65
2019-03-26T21:02:22.792Z,83.56
2019-03-26T21:04:52.688Z,83.07
2019-03-26T21:07:22.602Z,82.40
2019-03-26T21:09:52.166Z,81.88
2019-03-26T21:12:21.484Z,82.08
2019-03-26T21:14:52.282Z,81.73
2019-03-26T21:17:21.807Z,81.30
2019-03-26T21:19:51.583Z,81.48
2019-03-26T21:22:20.819Z,81.53
2019-03-26T21:24:51.604Z,81.75
2019-03-26T21:27:22.500Z,80.82
2019-03-26T21:29:52.531Z,81.56
2019-03-26T21:32:22.135Z,81.66
2019-03-26T21:34:51.413Z,81.95
2019-03-26T21:37:20.663Z,82.35
2019-03-26T21:39:49.871Z,82.50
2019-03-26T21:42:19.358Z,82.96
2019-03-26T21:44:48.871Z,83.40
2019-03-26T21:47:18.696Z,84.06
2019-03-26T21:49:48.628Z,84.38
2019-03-26T21:52:18.732Z,84.24
2019-03-26T21:54:48.179Z,84.42
2019-03-26T21:57:17.396Z,84.99
2019-03-26T21:59:46.943Z,84.98
2019-03-26T22:02:18.872Z,84.90
2019-03-26T22:04:48.959Z,85.08
2019-03-26T22:07:18.507Z,85.12
2019-03-26T22:09:47.745Z,85.00
2019-03-26T22:12:17.342Z,85.46
2019-03-26T22:14:47.257Z,85.48
2019-03-26T22:17:16.925Z,85.84
2019-03-26T22:19:46.123Z,85.91
2019-03-26T22:22:16.676Z,86.34
2019-03-26T22:24:49.288Z,86.45
2019-03-26T22:27:18.492Z,86.51
2019-03-26T22:29:48.836Z,86.70
2019-03-26T22:32:19.444Z,87.00
2019-03-26T22:34:49.467Z,86.99
2019-03-26T22:37:18.679Z,86.80
2019-03-26T22:39:48.363Z,86.76
2019-03-26T22:42:17.597Z,86.61
2019-03-26T22:44:46.815Z,86.50
2019-03-26T22:47:16.042Z,86.40
2019-03-26T22:49:45.245Z,86.21
2019-03-26T22:52:15.014Z,86.39
2019-03-26T22:54:44.237Z,86.22
2019-03-26T22:57:13.472Z,86.19
2019-03-26T22:59:42.674Z,86.18
2019-03-26T23:02:11.959Z,86.11
2019-03-26T23:04:41.177Z,86.29
2019-03-26T23:07:10.438Z,86.42
2019-03-26T23:09:39.659Z,86.21
2019-03-26T23:12:08.904Z,86.38
2019-03-26T23:14:45.164Z,86.32
2019-03-26T23:17:09.421Z,86.15
2019-03-26T23:19:39.725Z,86.25
2019-03-26T23:22:09.202Z,86.43
2019-03-26T23:24:38.686Z,86.67
2019-03-26T23:27:10.226Z,86.75
2019-03-26T23:29:41.252Z,86.73
2019-03-26T23:32:10.999Z,86.71
2019-03-26T23:34:41.180Z,86.81
2019-03-26T23:37:11.201Z,86.94
2019-03-26T23:39:40.935Z,86.83
2019-03-26T23:42:10.885Z,86.74
2019-03-26T23:44:40.920Z,86.80
2019-03-26T23:47:10.197Z,86.81
2019-03-26T23:49:40.028Z,86.61
2019-03-26T23:52:09.498Z,86.59
2019-03-26T23:54:38.736Z,86.68
2019-03-26T23:57:08.357Z,86.47
2019-03-26T23:59:37.568Z,86.41
